Time;durP1;ratioP1;P1;durP2;ratioP2;P2;SDS_P1;SDS_P2;PMS_P1;PMS_P2;Temp;Humidity;BMP_temperature;BMP_pressure;BME280_temperature;BME280_humidity;BME280_pressure;Samples;Min_cycle;Max_cycle;Signal;HPM_P1;HPM_P2
2021/07/13 00:00:37;;;;;;;18.77;11.50;;;;;;;23.14;64.45;100358.20;125291;1099;104316;-77
2021/07/13 00:03:19;;;;;;;19.43;10.23;;;;;;;23.16;64.84;100366.20;125239;1099;111735;-78
2021/07/13 00:05:50;;;;;;;19.30;10.93;;;;;;;23.16;65.04;100360.85;125274;1099;104598;-78
2021/07/13 00:08:21;;;;;;;16.70;10.03;;;;;;;23.17;64.68;100356.38;125260;1099;104194;-77
2021/07/13 00:10:51;;;;;;;20.40;11.43;;;;;;;23.18;65.08;100353.67;126256;1099;104354;-79
2021/07/13 00:13:25;;;;;;;18.67;11.23;;;;;;;23.15;64.97;100356.40;126326;1099;104222;-77
2021/07/13 00:15:56;;;;;;;24.50;11.73;;;;;;;23.14;65.09;100352.84;126290;1098;104134;-78
2021/07/13 00:18:27;;;;;;;21.63;11.60;;;;;;;23.14;65.11;100351.98;126366;1098;104147;-78
2021/07/13 00:20:58;;;;;;;22.20;11.63;;;;;;;23.17;65.56;100351.92;126343;1099;104204;-77
2021/07/13 00:23:28;;;;;;;19.27;11.10;;;;;;;23.17;64.76;100362.63;126181;1099;104316;-78
2021/07/13 00:25:59;;;;;;;18.03;10.63;;;;;;;23.16;65.25;100358.17;126353;1099;104223;-78
2021/07/13 00:28:31;;;;;;;20.67;10.83;;;;;;;23.14;65.21;100360.01;126325;1099;104229;-78
2021/07/13 00:31:02;;;;;;;19.63;10.97;;;;;;;23.10;65.01;100356.48;126356;1099;105649;-79
2021/07/13 00:33:33;;;;;;;20.97;10.93;;;;;;;23.06;65.67;100367.23;126305;1099;105646;-78
2021/07/13 00:36:03;;;;;;;22.47;10.83;;;;;;;23.03;65.72;100360.16;126310;1099;104177;-78
2021/07/13 00:38:34;;;;;;;20.90;11.53;;;;;;;23.02;65.48;100374.45;126354;1098;104213;-79
2021/07/13 00:41:05;;;;;;;20.70;11.47;;;;;;;23.03;65.88;100378.89;126350;1099;104694;-77
2021/07/13 00:43:36;;;;;;;18.77;11.20;;;;;;;22.96;65.95;100370.07;126320;1099;104165;-77
2021/07/13 00:46:07;;;;;;;18.37;10.93;;;;;;;22.82;65.33;100377.46;126286;1099;102070;-77
2021/07/13 00:48:38;;;;;;;20.17;10.93;;;;;;;22.67;65.91;100381.25;126282;1099;104238;-78
2021/07/13 00:51:10;;;;;;;19.73;11.20;;;;;;;22.55;66.42;100387.70;126370;1099;104217;-78
2021/07/13 00:53:43;;;;;;;20.87;10.47;;;;;;;22.43;66.07;100391.43;126233;1099;104219;-77
2021/07/13 00:56:13;;;;;;;;;;;;;;;22.31;66.45;100390.73;126400;1099;104165;-78
2021/07/13 00:58:43;;;;;;;20.60;11.13;;;;;;;22.21;66.18;100385.48;126329;1099;104309;-78
2021/07/13 01:01:15;;;;;;;18.97;11.03;;;;;;;22.15;66.16;100387.38;126309;1098;104140;-78
2021/07/13 01:03:46;;;;;;;18.97;10.40;;;;;;;22.08;66.80;100394.59;126262;1099;104184;-78
2021/07/13 01:06:21;;;;;;;22.27;11.50;;;;;;;21.98;67.58;100396.48;126327;1099;104181;-78
2021/07/13 01:09:03;;;;;;;18.67;11.00;;;;;;;21.87;67.40;100404.62;126305;1098;104172;-78
2021/07/13 01:11:47;;;;;;;19.30;11.70;;;;;;;21.82;67.69;100394.92;126340;1099;104151;-78
2021/07/13 01:14:28;;;;;;;20.40;11.00;;;;;;;21.76;67.97;100385.19;126277;1098;104191;-78
2021/07/13 01:17:06;;;;;;;21.63;12.33;;;;;;;21.66;68.25;100392.44;126344;1099;104136;-78
2021/07/13 01:20:03;;;;;;;19.37;11.73;;;;;;;21.61;67.67;100378.23;126307;1099;104959;-77
2021/07/13 01:22:39;;;;;;;19.30;11.40;;;;;;;21.56;68.30;100382.75;126334;1098;104171;-79
2021/07/13 01:25:23;;;;;;;22.57;11.93;;;;;;;21.60;68.38;100386.26;126299;1099;119515;-78
2021/07/13 01:28:06;;;;;;;;;;;;;;;21.51;68.44;100385.47;126357;1099;104149;-79
2021/07/13 01:30:42;;;;;;;17.75;10.65;;;;;;;21.49;68.64;100384.61;126341;1099;104139;-77
2021/07/13 01:33:18;;;;;;;20.40;11.20;;;;;;;21.50;68.73;100386.39;126260;1099;104181;-77
2021/07/13 01:35:53;;;;;;;22.83;11.90;;;;;;;21.52;68.24;100379.24;126368;1099;104142;-77
2021/07/13 01:38:27;;;;;;;19.47;11.67;;;;;;;21.54;68.87;100392.57;126346;1099;104184;-78
2021/07/13 01:41:01;;;;;;;19.10;11.40;;;;;;;21.51;68.67;100380.13;126356;1099;104143;-78
2021/07/13 01:43:35;;;;;;;23.20;11.53;;;;;;;21.47;69.25;100381.05;126301;1099;104313;-79
2021/07/13 01:46:07;;;;;;;21.83;11.50;;;;;;;21.46;68.46;100381.95;126335;1099;104210;-77
2021/07/13 01:48:39;;;;;;;20.37;10.90;;;;;;;21.43;68.99;100376.64;126360;1099;104149;-78
2021/07/13 01:51:10;;;;;;;18.70;11.13;;;;;;;21.42;69.09;100381.99;126339;1098;104265;-77
2021/07/13 01:53:43;;;;;;;21.27;11.57;;;;;;;21.39;68.68;100379.36;125385;1099;104198;-79
2021/07/13 01:56:15;;;;;;;21.60;12.33;;;;;;;21.39;69.18;100374.89;125276;1099;104762;-78
2021/07/13 01:58:47;;;;;;;19.65;11.30;;;;;;;21.39;68.94;100377.56;126191;1099;104168;-79
2021/07/13 02:01:24;;;;;;;19.93;11.57;;;;;;;21.39;68.60;100377.56;126236;1099;104159;-77
2021/07/13 02:03:56;;;;;;;19.60;10.63;;;;;;;21.40;69.37;100378.47;125978;1099;102997;-78
2021/07/13 02:06:28;;;;;;;19.37;10.53;;;;;;;21.38;69.00;100381.16;125227;1099;104447;-77
2021/07/13 02:09:04;;;;;;;18.70;11.10;;;;;;;21.36;68.96;100377.59;125297;1099;104650;-77
2021/07/13 02:11:37;;;;;;;19.40;10.83;;;;;;;21.33;69.74;100377.62;125299;1102;104357;-79
2021/07/13 02:14:09;;;;;;;19.40;11.83;;;;;;;21.31;69.37;100382.11;125396;1099;104140;-78
2021/07/13 02:16:41;;;;;;;19.97;11.30;;;;;;;21.31;69.89;100376.77;125463;1099;104711;-78
2021/07/13 02:19:12;;;;;;;20.03;11.43;;;;;;;21.32;70.20;100379.42;125229;1099;104312;-77
2021/07/13 02:21:44;;;;;;;21.07;12.23;;;;;;;21.31;70.30;100379.44;126166;1099;104147;-78
2021/07/13 02:24:15;;;;;;;22.67;11.77;;;;;;;21.26;69.94;100375.94;125936;1099;104284;-77
2021/07/13 02:26:51;;;;;;;20.00;11.43;;;;;;;21.22;69.39;100375.06;126292;1099;104144;-78
2021/07/13 02:29:25;;;;;;;18.87;11.60;;;;;;;21.23;70.08;100373.30;126361;1099;105292;-79
2021/07/13 02:32:01;;;;;;;20.05;11.55;;;;;;;21.26;69.60;100383.95;126317;1099;104188;-78
2021/07/13 02:34:38;;;;;;;21.00;12.70;;;;;;;21.24;69.51;100383.97;126277;1098;104140;-78
2021/07/13 02:37:12;;;;;;;24.73;12.23;;;;;;;21.24;69.99;100391.06;126346;1098;104185;-79
2021/07/13 02:39:46;;;;;;;19.63;12.47;;;;;;;21.28;69.74;100392.81;126345;1099;104197;-78
2021/07/13 02:42:18;;;;;;;20.77;12.03;;;;;;;21.30;69.68;100394.58;126343;1097;104143;-78
2021/07/13 02:44:51;;;;;;;22.03;11.53;;;;;;;21.31;70.46;100388.31;126264;1099;104143;-78
2021/07/13 02:47:26;;;;;;;21.60;12.17;;;;;;;21.29;69.84;100398.13;126374;1099;104150;-78
2021/07/13 02:50:00;;;;;;;19.00;11.63;;;;;;;21.26;69.64;100394.62;126334;1099;104220;-77
2021/07/13 02:52:33;;;;;;;18.90;11.80;;;;;;;21.22;70.37;100399.08;126365;1099;104262;-78
2021/07/13 02:55:06;;;;;;;;;;;;;;;21.17;70.28;100391.12;126337;1099;104139;-77
2021/07/13 02:57:39;;;;;;;24.93;11.70;;;;;;;21.17;70.11;100390.25;126318;1099;104216;-77
2021/07/13 03:00:14;;;;;;;20.82;11.75;;;;;;;21.16;69.98;100376.03;126322;1099;104176;-79
2021/07/13 03:02:49;;;;;;;20.00;11.30;;;;;;;21.17;70.60;100379.58;126328;1099;104149;-77
2021/07/13 03:05:23;;;;;;;19.27;11.40;;;;;;;21.18;70.07;100368.89;126316;1098;104178;-78
2021/07/13 03:07:54;;;;;;;20.40;12.00;;;;;;;21.21;69.83;100377.75;126366;1099;104178;-78
2021/07/13 03:10:30;;;;;;;21.13;12.10;;;;;;;21.18;70.55;100368.89;126314;1099;104358;-78
2021/07/13 03:13:01;;;;;;;21.23;12.50;;;;;;;21.18;70.90;100368.02;126325;1099;104150;-79
2021/07/13 03:15:33;;;;;;;20.77;12.40;;;;;;;21.15;70.30;100365.38;126269;1099;104191;-77
2021/07/13 03:18:04;;;;;;;17.97;11.03;;;;;;;21.11;70.39;100367.16;126343;1099;104152;-78
2021/07/13 03:20:39;;;;;;;20.20;12.13;;;;;;;21.11;70.62;100372.50;126377;1099;104210;-78
2021/07/13 03:23:11;;;;;;;20.67;12.03;;;;;;;21.10;71.21;100373.42;126299;1099;104242;-79
2021/07/13 03:25:45;;;;;;;21.30;12.80;;;;;;;21.12;70.84;100371.61;126271;1098;104169;-78
2021/07/13 03:28:17;;;;;;;21.63;11.97;;;;;;;21.12;71.47;100368.95;126340;1099;104236;-78
2021/07/13 03:30:49;;;;;;;24.10;12.43;;;;;;;21.12;70.73;100368.07;126326;1099;104223;-79
2021/07/13 03:33:21;;;;;;;22.03;11.93;;;;;;;21.11;70.97;100359.16;126339;1099;104227;-78
2021/07/13 03:35:54;;;;;;;22.23;12.00;;;;;;;21.13;71.17;100364.48;126228;1099;104245;-79
2021/07/13 03:38:26;;;;;;;19.77;11.95;;;;;;;21.15;71.55;100365.38;126368;1099;104251;-78
2021/07/13 03:40:58;;;;;;;22.17;12.03;;;;;;;21.17;71.30;100367.11;126333;1099;104367;-79
2021/07/13 03:43:29;;;;;;;20.20;12.20;;;;;;;21.21;70.81;100377.75;126353;1099;104673;-77
2021/07/13 03:46:00;;;;;;;20.43;12.00;;;;;;;21.25;70.79;100379.50;126270;1099;104217;-79
2021/07/13 03:48:32;;;;;;;26.17;13.00;;;;;;;21.28;71.50;100382.14;126298;1099;104143;-79
2021/07/13 03:51:03;;;;;;;23.07;12.67;;;;;;;21.28;70.69;100384.80;126343;1099;104156;-79
2021/07/13 03:53:36;;;;;;;19.97;12.87;;;;;;;21.31;71.28;100379.44;126338;1099;104181;-78
2021/07/13 03:56:07;;;;;;;21.17;13.03;;;;;;;21.35;71.40;100381.19;126332;1098;104191;-78
2021/07/13 03:58:39;;;;;;;22.70;12.93;;;;;;;21.41;71.77;100389.13;126358;1099;104217;-79
2021/07/13 04:01:13;;;;;;;20.40;12.15;;;;;;;21.45;71.11;100388.17;126335;1099;104227;-79
2021/07/13 04:03:45;;;;;;;21.90;12.40;;;;;;;21.47;72.03;100386.39;126362;1099;103998;-78
2021/07/13 04:06:19;;;;;;;20.37;12.50;;;;;;;21.49;71.88;100387.28;126178;1099;104210;-78
2021/07/13 04:08:52;;;;;;;22.00;12.90;;;;;;;21.51;71.30;100388.14;126282;1099;104195;-79
2021/07/13 04:11:28;;;;;;;24.00;12.57;;;;;;;21.54;71.87;100392.57;126334;1099;104216;-78
2021/07/13 04:14:00;;;;;;;24.50;11.87;;;;;;;21.60;71.51;100392.50;125407;1099;104146;-78
2021/07/13 04:16:33;;;;;;;22.57;12.87;;;;;;;21.65;71.95;100397.80;126285;1099;104216;-79
2021/07/13 04:19:04;;;;;;;23.57;11.97;;;;;;;21.69;71.21;100399.50;126268;1099;104246;-79
2021/07/13 04:21:36;;;;;;;27.27;12.37;;;;;;;21.73;71.76;100388.77;126343;1097;104195;-78
2021/07/13 04:24:07;;;;;;;20.43;11.87;;;;;;;21.78;71.08;100394.05;126328;1099;104214;-78
2021/07/13 04:26:38;;;;;;;21.20;11.77;;;;;;;21.81;71.68;100380.66;126268;1099;104297;-77
2021/07/13 04:29:08;;;;;;;24.13;13.03;;;;;;;21.88;71.38;100387.70;126345;1099;104140;-78
2021/07/13 04:31:40;;;;;;;21.17;12.23;;;;;;;21.96;70.92;100389.41;126332;1099;104142;-79
2021/07/13 04:34:11;;;;;;;20.00;12.65;;;;;;;22.00;70.98;100396.46;126333;1098;104165;-77
2021/07/13 04:36:42;;;;;;;23.40;11.87;;;;;;;22.06;71.14;100402.63;126285;1099;104560;-77
2021/07/13 04:39:13;;;;;;;22.07;12.93;;;;;;;22.16;71.03;100398.04;126320;1099;104134;-78
2021/07/13 04:41:44;;;;;;;19.73;13.13;;;;;;;22.23;70.94;100394.35;126354;1099;104146;-77
2021/07/13 04:44:16;;;;;;;19.27;12.67;;;;;;;22.28;70.81;100396.96;126312;1099;104145;-78
2021/07/13 04:46:46;;;;;;;22.07;13.17;;;;;;;22.33;70.89;100388.91;126278;1099;104274;-77
2021/07/13 04:49:19;;;;;;;24.35;13.35;;;;;;;22.34;70.33;100396.91;126250;1099;104121;-79
2021/07/13 04:51:52;;;;;;;23.07;13.97;;;;;;;22.35;70.43;100389.80;126131;1099;104625;-78
2021/07/13 04:54:23;;;;;;;23.87;14.27;;;;;;;22.39;70.35;100400.42;126299;1099;104188;-79
2021/07/13 04:56:54;;;;;;;20.90;13.20;;;;;;;22.47;70.33;100402.08;126278;1099;105595;-77
2021/07/13 04:59:24;;;;;;;22.97;13.83;;;;;;;22.49;70.27;100397.61;126256;1099;104184;-78
2021/07/13 05:01:55;;;;;;;21.50;13.60;;;;;;;22.47;69.74;100407.42;126229;1099;104139;-77
2021/07/13 05:04:26;;;;;;;20.10;12.70;;;;;;;22.49;70.29;100403.84;126214;1099;104140;-78
2021/07/13 05:06:58;;;;;;;21.45;12.65;;;;;;;22.58;70.66;100405.50;126225;1099;104270;-77
2021/07/13 05:09:32;;;;;;;23.60;13.75;;;;;;;22.67;70.19;100407.13;126266;1099;112776;-77
2021/07/13 05:12:02;;;;;;;;;;;;;;;22.75;70.19;100394.51;126193;1099;104223;-78
2021/07/13 05:14:36;;;;;;;20.90;12.50;;;;;;;22.84;70.42;100402.38;126210;1099;104316;-75
2021/07/13 05:17:10;;;;;;;21.10;13.80;;;;;;;22.94;69.96;100404.01;126194;1099;104204;-77
2021/07/13 05:19:43;;;;;;;23.50;13.68;;;;;;;23.03;70.23;100408.33;126390;1099;104145;-77
2021/07/13 05:22:15;;;;;;;21.10;12.90;;;;;;;23.09;69.67;100405.59;126133;1098;104243;-76
2021/07/13 05:24:49;;;;;;;21.42;13.45;;;;;;;23.13;69.90;100409.08;126290;1099;104143;-77
2021/07/13 05:27:23;;;;;;;23.38;14.38;;;;;;;23.17;69.50;100404.55;126287;1098;104204;-78
2021/07/13 05:29:59;;;;;;;23.00;14.40;;;;;;;23.13;69.35;100409.95;126133;1099;107806;-77
2021/07/13 05:32:34;;;;;;;23.97;14.57;;;;;;;23.12;69.42;100412.66;126271;1098;104181;-76
2021/07/13 05:35:07;;;;;;;23.60;14.90;;;;;;;23.17;69.32;100407.22;126234;1099;104146;-75
2021/07/13 05:37:40;;;;;;;23.73;14.57;;;;;;;23.20;69.39;100401.81;126295;1098;104152;-77
2021/07/13 05:40:12;;;;;;;26.13;15.27;;;;;;;23.17;69.47;100405.45;126068;1099;119444;-78
2021/07/13 05:42:43;;;;;;;;;;;;;;;23.23;69.20;100410.66;126213;1099;104204;-76
2021/07/13 05:45:18;;;;;;;27.37;14.97;;;;;;;23.32;69.32;100404.27;126187;1099;104198;-78
2021/07/13 05:47:49;;;;;;;23.70;14.93;;;;;;;23.39;69.42;100415.73;126189;1099;104271;-75
2021/07/13 05:50:21;;;;;;;21.50;15.13;;;;;;;23.44;69.22;100406.72;126099;1099;104178;-75
2021/07/13 05:52:57;;;;;;;25.02;15.40;;;;;;;23.50;69.38;100417.31;126053;1099;104592;-75
2021/07/13 05:55:28;;;;;;;23.80;14.97;;;;;;;23.55;69.06;100417.23;125281;1099;104344;-77
2021/07/13 05:58:01;;;;;;;22.70;15.53;;;;;;;23.54;68.69;100420.81;125382;1099;104325;-77
2021/07/13 06:00:33;;;;;;;23.60;14.53;;;;;;;23.56;68.71;100429.72;125997;1099;104328;-76
2021/07/13 06:03:06;;;;;;;27.77;14.80;;;;;;;23.63;68.98;100420.63;126079;1099;104393;-77
2021/07/13 06:05:39;;;;;;;25.20;14.65;;;;;;;23.72;68.84;100432.98;125410;1099;104245;-76
2021/07/13 06:08:14;;;;;;;25.03;15.50;;;;;;;23.75;68.66;100434.69;126130;1099;104168;-77
2021/07/13 06:10:48;;;;;;;23.77;14.40;;;;;;;23.77;68.66;100438.25;126070;1099;105652;-79
2021/07/13 06:13:20;;;;;;;23.03;13.77;;;;;;;23.84;68.50;100437.22;126043;1099;104204;-76
2021/07/13 06:15:54;;;;;;;22.23;15.30;;;;;;;23.92;68.69;100424.58;126004;1099;104139;-77
2021/07/13 06:18:27;;;;;;;23.45;14.63;;;;;;;23.97;68.30;100421.80;126135;1099;104296;-78
2021/07/13 06:21:02;;;;;;;21.62;13.98;;;;;;;23.99;68.39;100422.64;125330;1099;105322;-78
2021/07/13 06:23:35;;;;;;;23.27;14.20;;;;;;;24.07;68.08;100430.52;126020;1099;104402;-78
2021/07/13 06:26:11;;;;;;;23.77;15.00;;;;;;;24.15;68.06;100424.09;125379;1099;104430;-77
2021/07/13 06:28:46;;;;;;;22.20;14.20;;;;;;;24.20;67.84;100426.67;126294;1099;104146;-77
2021/07/13 06:31:21;;;;;;;25.95;14.85;;;;;;;24.25;67.63;100426.54;126179;1099;119295;-79
2021/07/13 06:33:54;;;;;;;27.10;15.70;;;;;;;24.32;67.37;100442.46;126038;1099;104181;-79
2021/07/13 06:36:34;;;;;;;24.33;14.27;;;;;;;24.34;67.44;100437.97;125966;1099;104194;-80
2021/07/13 06:39:08;;;;;;;21.37;14.60;;;;;;;24.33;67.00;100438.00;125938;1099;104143;-80
2021/07/13 06:41:44;;;;;;;22.07;13.47;;;;;;;24.40;67.50;100434.25;125845;1099;104338;-81
2021/07/13 06:44:27;;;;;;;25.63;13.60;;;;;;;24.48;67.11;100432.30;126058;1099;104485;-77
2021/07/13 06:47:00;;;;;;;22.80;14.87;;;;;;;24.56;67.01;100432.12;126102;1099;104300;-78
2021/07/13 06:49:32;;;;;;;26.12;14.18;;;;;;;24.65;67.04;100433.72;125202;1099;105801;-77
2021/07/13 06:52:06;;;;;;;21.93;13.73;;;;;;;24.72;66.78;100430.86;126128;1099;104235;-78
2021/07/13 06:54:40;;;;;;;21.10;13.50;;;;;;;24.82;66.74;100426.14;126081;1099;104347;-80
2021/07/13 06:57:27;;;;;;;21.37;13.73;;;;;;;24.93;66.36;100421.41;125424;1099;104284;-81
2021/07/13 07:00:00;;;;;;;22.53;13.50;;;;;;;25.05;66.24;100424.70;125757;1099;104424;-78
2021/07/13 07:02:35;;;;;;;23.17;13.67;;;;;;;25.14;66.46;100432.52;125209;1102;104197;-79
2021/07/13 07:05:10;;;;;;;23.07;13.97;;;;;;;25.23;66.00;100426.91;125152;1102;104191;-79
2021/07/13 07:07:53;;;;;;;20.70;13.35;;;;;;;25.33;65.56;100430.27;125254;1102;104434;-77
2021/07/13 07:10:39;;;;;;;24.47;14.13;;;;;;;25.45;65.56;100438.00;125062;1102;104315;-78
2021/07/13 07:13:11;;;;;;;24.83;14.27;;;;;;;25.51;65.28;100428.00;125114;1102;105062;-77
2021/07/13 07:15:45;;;;;;;23.43;14.17;;;;;;;25.63;65.14;100435.72;125190;1102;104252;-76
2021/07/13 07:18:20;;;;;;;22.80;13.87;;;;;;;25.78;65.17;100437.11;125142;1102;104765;-78
2021/07/13 07:20:53;;;;;;;22.37;12.93;;;;;;;25.94;64.73;100448.30;125245;1102;104338;-77
2021/07/13 07:23:27;;;;;;;27.03;14.97;;;;;;;25.99;63.83;100444.59;125289;1102;104232;-78
2021/07/13 07:26:00;;;;;;;23.97;14.40;;;;;;;26.02;63.18;100443.61;125209;1102;104293;-78
2021/07/13 07:28:38;;;;;;;25.17;14.67;;;;;;;26.10;63.77;100440.69;125127;1102;104146;-77
2021/07/13 07:31:10;;;;;;;25.13;14.40;;;;;;;26.23;63.35;100446.61;125078;1102;104224;-76
2021/07/13 07:33:44;;;;;;;23.37;14.43;;;;;;;26.36;63.32;100442.60;125359;1100;104147;-77
2021/07/13 07:36:16;;;;;;;22.50;14.10;;;;;;;26.54;63.56;100435.78;126008;1099;104245;-78
2021/07/13 07:38:47;;;;;;;22.40;13.90;;;;;;;26.67;63.54;100431.78;125947;1099;104146;-76
2021/07/13 07:41:19;;;;;;;25.03;15.13;;;;;;;26.83;63.49;100440.27;125965;1099;104233;-75
2021/07/13 07:43:53;;;;;;;26.93;15.48;;;;;;;26.94;63.01;100428.24;125379;1099;104235;-77
2021/07/13 07:46:25;;;;;;;22.63;14.07;;;;;;;27.04;62.61;100435.09;126027;1099;104271;-75
2021/07/13 07:48:58;;;;;;;30.27;15.03;;;;;;;27.17;62.18;100441.80;126156;1099;104255;-76
2021/07/13 07:51:32;;;;;;;27.07;14.20;;;;;;;27.34;62.28;100443.09;126046;1099;104255;-77
2021/07/13 07:54:08;;;;;;;28.52;14.28;;;;;;;27.50;62.39;100444.29;125461;1099;104114;-76
2021/07/13 07:56:42;;;;;;;26.27;15.13;;;;;;;27.65;61.63;100433.92;125414;1099;104174;-77
2021/07/13 07:59:16;;;;;;;26.40;15.23;;;;;;;27.75;61.38;100436.22;126161;1099;104152;-78
2021/07/13 08:01:47;;;;;;;27.80;14.93;;;;;;;27.86;61.49;100438.52;126021;1099;104354;-77
2021/07/13 08:04:22;;;;;;;24.90;14.30;;;;;;;27.92;60.81;100438.27;125393;1099;104188;-77
2021/07/13 08:06:55;;;;;;;26.90;15.67;;;;;;;28.06;60.79;100439.61;125377;1099;104214;-77
2021/07/13 08:09:29;;;;;;;28.73;16.17;;;;;;;28.13;60.21;100428.53;126201;1099;104288;-78
2021/07/13 08:12:13;;;;;;;26.07;15.37;;;;;;;28.23;60.15;100441.66;126094;1099;104293;-76
2021/07/13 08:14:46;;;;;;;32.40;14.57;;;;;;;28.38;60.24;100440.20;125410;1099;104344;-78
2021/07/13 08:17:21;;;;;;;27.47;15.57;;;;;;;28.48;60.14;100438.88;126110;1099;104207;-78
2021/07/13 08:19:56;;;;;;;28.23;16.10;;;;;;;28.56;59.71;100442.14;126179;1099;104217;-77
2021/07/13 08:22:27;;;;;;;29.65;17.20;;;;;;;28.69;59.76;100442.58;126143;1099;104172;-79
2021/07/13 08:24:59;;;;;;;;;;;;;;;28.72;58.81;100441.55;126261;1099;104197;-79
2021/07/13 08:27:33;;;;;;;27.77;15.67;;;;;;;28.89;58.58;100439.06;126065;1099;104239;-79
2021/07/13 08:30:06;;;;;;;25.53;14.50;;;;;;;29.00;58.68;100436.79;126033;1099;104175;-77
2021/07/13 08:32:42;;;;;;;25.20;14.27;;;;;;;29.16;58.45;100439.71;126070;1099;104280;-78
2021/07/13 08:35:19;;;;;;;22.17;14.67;;;;;;;29.31;58.38;100434.62;126071;1099;104242;-80
2021/07/13 08:37:53;;;;;;;20.97;14.53;;;;;;;29.40;57.51;100428.81;126189;1099;104174;-78
2021/07/13 08:40:28;;;;;;;22.30;14.20;;;;;;;29.58;57.30;100432.54;126211;1099;104233;-78
2021/07/13 08:43:03;;;;;;;23.37;14.00;;;;;;;29.71;57.23;100430.16;126216;1099;104143;-77
2021/07/13 08:45:41;;;;;;;23.90;14.67;;;;;;;29.81;56.82;100434.25;126156;1099;104171;-76
2021/07/13 08:48:15;;;;;;;24.43;14.80;;;;;;;29.90;56.20;100439.23;126083;1099;104161;-79
2021/07/13 08:50:49;;;;;;;21.53;14.67;;;;;;;29.96;55.78;100440.77;125991;1099;104169;-77
2021/07/13 08:53:23;;;;;;;19.77;13.97;;;;;;;29.98;55.44;100438.89;126183;1099;105688;-79
2021/07/13 08:55:59;;;;;;;20.23;13.30;;;;;;;30.07;55.58;100440.27;126163;1099;104265;-79
2021/07/13 08:58:34;;;;;;;25.03;13.80;;;;;;;30.15;55.15;100440.78;126199;1099;104194;-78
2021/07/13 09:01:09;;;;;;;23.85;13.65;;;;;;;30.26;54.94;100441.17;126079;1099;104243;-80
2021/07/13 09:03:56;;;;;;;24.93;14.77;;;;;;;30.32;54.65;100434.56;126210;1099;104140;-79
2021/07/13 09:06:52;;;;;;;22.50;14.30;;;;;;;30.39;54.46;100435.20;126062;1099;104255;-80
2021/07/13 09:09:31;;;;;;;22.30;14.75;;;;;;;30.44;54.02;100434.02;126185;1099;104025;-79
2021/07/13 09:12:17;;;;;;;26.73;14.60;;;;;;;30.46;53.93;100433.94;126300;1099;104149;-79
2021/07/13 09:14:55;;;;;;;22.67;15.17;;;;;;;30.44;53.13;100436.72;126262;1099;112329;-80
2021/07/13 09:17:40;;;;;;;21.83;14.00;;;;;;;30.42;53.82;100446.76;126307;1099;104300;-79
2021/07/13 09:20:21;;;;;;;29.00;15.67;;;;;;;30.41;53.54;100439.58;126268;1099;104210;-79
2021/07/13 09:22:59;;;;;;;23.47;14.77;;;;;;;30.46;53.28;100437.55;126117;1099;104303;-80
2021/07/13 09:25:43;;;;;;;24.17;14.47;;;;;;;30.51;52.33;100439.14;126274;1099;104338;-81
2021/07/13 09:28:23;;;;;;;22.63;15.07;;;;;;;30.43;52.13;100437.70;126138;1098;104162;-77
2021/07/13 09:31:03;;;;;;;24.43;13.97;;;;;;;30.51;52.59;100436.42;126194;1099;104185;-78
2021/07/13 09:33:40;;;;;;;21.00;14.63;;;;;;;30.57;51.88;100428.01;126002;1099;104224;-80
2021/07/13 09:36:20;;;;;;;21.03;13.60;;;;;;;30.64;52.31;100440.30;126044;1099;104194;-78
2021/07/13 09:38:57;;;;;;;21.10;12.40;;;;;;;30.74;51.79;100433.47;125301;1099;104172;-78
2021/07/13 09:41:35;;;;;;;21.20;11.83;;;;;;;30.80;51.35;100432.30;125248;1102;104181;-79
2021/07/13 09:44:27;;;;;;;19.47;12.30;;;;;;;30.89;51.27;100439.09;125313;1102;104229;-77
2021/07/13 09:47:00;;;;;;;20.77;13.07;;;;;;;30.93;51.02;100437.97;125243;1100;104313;-79
2021/07/13 09:49:35;;;;;;;20.90;12.83;;;;;;;30.98;50.18;100438.67;125203;1102;104408;-78
2021/07/13 09:52:12;;;;;;;22.00;13.17;;;;;;;30.94;50.78;100428.89;125199;1102;104171;-80
2021/07/13 09:54:51;;;;;;;23.17;14.00;;;;;;;30.92;50.84;100434.39;125052;1099;104275;-80
2021/07/13 09:57:27;;;;;;;22.53;13.27;;;;;;;30.81;50.81;100425.94;125163;1099;104168;-78
2021/07/13 10:00:00;;;;;;;25.30;14.10;;;;;;;30.78;50.80;100431.50;125160;1099;104405;-77
2021/07/13 10:02:35;;;;;;;20.00;13.30;;;;;;;30.75;50.48;100435.23;125223;1100;104159;-78
2021/07/13 10:05:07;;;;;;;20.57;13.00;;;;;;;30.74;50.20;100429.89;125100;1100;104203;-80
2021/07/13 10:07:43;;;;;;;20.95;13.50;;;;;;;30.68;50.02;100424.77;125153;1100;104325;-79
2021/07/13 10:10:17;;;;;;;18.83;12.10;;;;;;;30.67;49.87;100432.03;125296;1099;104260;-79
2021/07/13 10:12:50;;;;;;;22.67;12.73;;;;;;;30.66;50.06;100432.98;126078;1099;104325;-78
2021/07/13 10:15:21;;;;;;;24.92;12.88;;;;;;;30.73;50.24;100426.31;125813;1099;104198;-77
2021/07/13 10:17:53;;;;;;;23.20;13.10;;;;;;;30.70;49.29;100422.86;125921;1099;104175;-79
2021/07/13 10:20:27;;;;;;;21.10;12.70;;;;;;;30.63;49.16;100431.28;125976;1099;104178;-78
2021/07/13 10:23:02;;;;;;;21.43;12.93;;;;;;;30.65;49.16;100420.37;125920;1099;104252;-77
2021/07/13 10:25:40;;;;;;;20.67;12.60;;;;;;;30.66;49.22;100427.56;126132;1099;104165;-77
2021/07/13 10:28:13;;;;;;;21.93;12.30;;;;;;;30.70;48.91;100423.76;126027;1099;104319;-77
2021/07/13 10:30:53;;;;;;;20.13;12.03;;;;;;;30.65;48.43;100425.79;126067;1099;104175;-78
2021/07/13 10:33:39;;;;;;;20.40;11.27;;;;;;;30.65;48.50;100420.37;126052;1099;104195;-79
2021/07/13 10:36:41;;;;;;;21.70;12.20;;;;;;;30.71;48.81;100413.80;126177;1099;105602;-79
2021/07/13 10:39:31;;;;;;;18.95;11.90;;;;;;;30.74;48.36;100419.05;126271;1099;104152;-79
2021/07/13 10:42:30;;;;;;;20.07;11.23;;;;;;;30.77;48.27;100408.94;126121;1099;104226;-79
2021/07/13 10:45:23;;;;;;;20.50;11.87;;;;;;;30.88;48.25;100410.24;126171;1099;105140;-78
2021/07/13 10:48:12;;;;;;;25.53;12.67;;;;;;;30.92;47.79;100404.59;126139;1099;104166;-81
2021/07/13 10:50:51;;;;;;;18.57;11.33;;;;;;;31.08;48.07;100414.69;126283;1099;104226;-80
2021/07/13 10:53:26;;;;;;;19.83;11.77;;;;;;;31.11;47.46;100412.68;126173;1099;104269;-78
2021/07/13 10:56:17;;;;;;;18.33;11.63;;;;;;;31.07;47.65;100410.20;126147;1099;104360;-78
2021/07/13 10:58:52;;;;;;;21.00;11.87;;;;;;;31.09;47.55;100406.48;126026;1099;104169;-78
2021/07/13 11:01:29;;;;;;;24.03;12.50;;;;;;;31.14;47.55;100400.82;126143;1099;104245;-79
2021/07/13 11:04:15;;;;;;;22.07;12.07;;;;;;;31.04;46.68;100400.42;126121;1098;104238;-78
2021/07/13 11:06:56;;;;;;;17.70;10.60;;;;;;;31.06;46.78;100403.06;126061;1098;104325;-77
2021/07/13 11:09:33;;;;;;;20.90;12.23;;;;;;;31.09;46.43;100398.34;126242;1099;104364;-77
2021/07/13 11:12:15;;;;;;;22.55;13.70;;;;;;;31.22;46.46;100404.00;126236;1099;104239;-77
2021/07/13 11:15:01;;;;;;;18.23;10.87;;;;;;;31.34;46.74;100394.36;126199;1099;104309;-80
2021/07/13 11:17:34;;;;;;;18.73;11.03;;;;;;;31.33;46.00;100388.04;125263;1099;104146;-79
2021/07/13 11:20:17;;;;;;;18.47;11.33;;;;;;;31.35;46.25;100386.15;125247;1099;104156;-78
2021/07/13 11:22:56;;;;;;;20.60;11.00;;;;;;;31.46;46.03;100390.11;125232;1099;104201;-77
2021/07/13 11:25:34;;;;;;;20.05;10.75;;;;;;;31.51;45.83;100383.48;125150;1102;104178;-78
2021/07/13 11:28:18;;;;;;;17.80;10.90;;;;;;;31.46;45.37;100391.00;126122;1099;104162;-78